Stolt Auk — 2HLY2 — position and weather

sailwx.info

Track history (hours):
 
Tides and Currents Weather Stations Pressure Air Temp Water Temp Dewpoint Dewpoint Depression Visibility Wind Speed Wind Dir Waves Ship Positions

Stolt Auk

Last reported at 2017-Nov-17 17:39 UTC. Time now 2017-Nov-18 02:59 UTC.
Position N 35°40' E 014°28'.

Length 100 m; draft 6.1 m.

Type: Ship (hazmat cat A). MMSI: 235104739.

Date/timePositionNaut miles runAvg speedWind from/ knotsBaromVisibWave heightAir tempDewpointWater temp
2017-Nov-17 17:39N 35°40' E 014°28'211.7
2017-Nov-17 17:30N 35°40' E 014°26'611.5
2017-Nov-17 17:00N 35°41' E 014°19'611.7
2017-Nov-17 16:29N 35°43' E 014°13'611.4
2017-Nov-17 16:00N 35°46' E 014°07'  
2017-Nov-14 03:18N 36°01' W 005°09'413.9
2017-Nov-14 03:00N 36°00' W 005°14'713.4
2017-Nov-14 02:30N 35°58' W 005°22'  
2017-Nov-11 02:14N 46°56' W 007°24'13511.9
2017-Nov-10 14:54N 48°54' W 005°44'1112.3
2017-Nov-10 14:01N 49°00' W 005°31'8610.5
2017-Nov-10 05:54N 49°43' W 003°37'512.2
2017-Nov-10 05:30N 49°46' W 003°31'612.4
2017-Nov-10 05:00N 49°49' W 003°22'712.8
2017-Nov-10 04:25N 49°53' W 003°12'512.9
2017-Nov-10 04:00N 49°55' W 003°05'612.9
2017-Nov-10 03:30N 49°58' W 002°56'612.9
2017-Nov-10 03:00N 50°00' W 002°47'612.5
2017-Nov-10 02:30N 50°02' W 002°38'4410.6
2017-Nov-09 22:22N 50°13' W 001°32'4213.4
2017-Nov-09 19:15N 50°24' W 000°28'414.9
2017-Nov-09 19:00N 50°25' W 000°23'714.7
2017-Nov-09 18:30N 50°27' W 000°12'714.5
2017-Nov-09 18:00N 50°28' W 000°00'714.3
2017-Nov-09 17:30N 50°30' E 000°10'714.0
2017-Nov-09 17:00N 50°32' E 000°21'713.6
2017-Nov-09 16:30N 50°34' E 000°31'612.9
2017-Nov-09 16:00N 50°37' E 000°40'612.7
2017-Nov-09 15:31N 50°41' E 000°48'612.1
2017-Nov-09 15:00N 50°44' E 000°56'611.7
2017-Nov-09 14:30N 50°48' E 001°03'611.6
2017-Nov-09 13:57N 50°52' E 001°12'511.7
2017-Nov-09 13:30N 50°55' E 001°18'612.2
2017-Nov-09 13:00N 50°60' E 001°24'713.4
2017-Nov-09 12:30N 51°04' E 001°32'714.6
2017-Nov-09 12:00N 51°10' E 001°40'714.9
2017-Nov-09 11:30N 51°15' E 001°47'815.1
2017-Nov-09 11:00N 51°22' E 001°53'714.4
2017-Nov-09 10:30N 51°28' E 001°59'714.0
2017-Nov-09 10:00N 51°33' E 002°07'813.5
2017-Nov-09 09:27N 51°39' E 002°15'1612.7
2017-Nov-09 08:09N 51°51' E 002°33'1412.0
2017-Nov-09 07:02N 52°00' E 002°49'011.8
2017-Nov-09 07:00N 52°00' E 002°50'2811.8
2017-Nov-09 04:36N 52°04' E 003°35'111.5
2017-Nov-09 04:30N 52°04' E 003°37'612.0
2017-Nov-09 04:00N 52°03' E 003°47'511.0
2017-Nov-09 03:30N 52°02' E 003°55'612.6
2017-Nov-09 03:01N 51°59' E 004°04'612.8
2017-Nov-09 02:30N 51°56' E 004°13'510.7
2017-Nov-09 02:00N 51°54' E 004°21'0 0.8
2017-Nov-09 01:29N 51°54' E 004°22'0 0.0
2017-Nov-09 00:59N 51°54' E 004°22'0 0.0
2017-Nov-09 00:29N 51°54' E 004°22'0 0.0
2017-Nov-08 23:59N 51°54' E 004°22'0 0.0
2017-Nov-08 23:29N 51°54' E 004°22'0 0.0
2017-Nov-08 22:59N 51°54' E 004°22'0 0.0
2017-Nov-08 22:29N 51°54' E 004°22'0 0.0
2017-Nov-08 21:59N 51°54' E 004°22'0 0.0
2017-Nov-08 21:26N 51°54' E 004°22'0 0.0
2017-Nov-08 20:59N 51°54' E 004°22'0 0.0
2017-Nov-08 20:29N 51°54' E 004°22'0 0.0
2017-Nov-08 19:59N 51°54' E 004°22'0 0.0
2017-Nov-08 19:29N 51°54' E 004°22'0 0.0
2017-Nov-08 18:59N 51°54' E 004°22'0 0.0
2017-Nov-08 18:29N 51°54' E 004°22'0 0.0
2017-Nov-08 17:59N 51°54' E 004°22'0 0.0
2017-Nov-08 17:26N 51°54' E 004°22'0 0.0
2017-Nov-08 16:59N 51°54' E 004°22'0 0.0
2017-Nov-08 16:29N 51°54' E 004°22'0 0.0
2017-Nov-08 15:59N 51°54' E 004°22'0 0.0
2017-Nov-08 15:29N 51°54' E 004°22'0 0.0
2017-Nov-08 14:59N 51°54' E 004°22'0 0.0
2017-Nov-08 14:29N 51°54' E 004°22'0 0.0
2017-Nov-08 13:59N 51°54' E 004°22'0 0.0
2017-Nov-08 13:26N 51°54' E 004°22'0 0.0
2017-Nov-08 12:59N 51°54' E 004°22'0 0.0
2017-Nov-08 12:23N 51°54' E 004°22'0 0.0
2017-Nov-08 11:59N 51°54' E 004°22'0 0.0
2017-Nov-08 11:29N 51°54' E 004°22'0 0.0
2017-Nov-08 10:56N 51°54' E 004°22'0 0.0
2017-Nov-08 10:29N 51°54' E 004°22'0 0.0
2017-Nov-08 09:59N 51°54' E 004°22'0 0.0
2017-Nov-08 09:29N 51°54' E 004°22'0 0.0
2017-Nov-08 08:56N 51°54' E 004°22'0 0.0
2017-Nov-08 08:29N 51°54' E 004°22'0 0.0
2017-Nov-08 07:56N 51°54' E 004°22'0 0.0
2017-Nov-08 07:29N 51°54' E 004°22'0 0.0
2017-Nov-08 06:59N 51°54' E 004°22'0 0.0
2017-Nov-08 06:29N 51°54' E 004°22'0 0.0
2017-Nov-08 05:59N 51°54' E 004°22'0 0.0
2017-Nov-08 05:29N 51°54' E 004°22'0 0.0
2017-Nov-08 04:59N 51°54' E 004°22'0 0.9
2017-Nov-08 04:30N 51°54' E 004°22'4 8.3
2017-Nov-08 04:00N 51°54' E 004°16'611.2
2017-Nov-08 03:30N 51°58' E 004°09'611.9
2017-Nov-08 03:00N 51°60' E 003°60'612.6
2017-Nov-08 02:30N 51°60' E 003°49'5 9.4
2017-Nov-08 02:00N 51°56' E 003°45'0 0.1
2017-Nov-08 01:30N 51°56' E 003°45'0 0.1
2017-Nov-08 00:57N 51°56' E 003°45'0 0.0
2017-Nov-08 00:30N 51°56' E 003°45'0 0.0
2017-Nov-07 23:54N 51°56' E 003°45'0 0.0
2017-Nov-07 23:30N 51°56' E 003°45'0 0.0
2017-Nov-07 23:00N 51°56' E 003°45'0 0.0
2017-Nov-07 22:30N 51°56' E 003°45'0 0.0
2017-Nov-07 21:54N 51°56' E 003°45'0 0.0
2017-Nov-07 21:27N 51°56' E 003°45'0 0.2
2017-Nov-07 21:00N 51°56' E 003°45'0 0.1
2017-Nov-07 19:27N 51°56' E 003°45'0 0.0
2017-Nov-07 18:09N 51°56' E 003°45'0 0.0
2017-Nov-07 18:00N 51°56' E 003°45'  
Track history (hours):
 
Tides and Currents Weather Stations Pressure Air Temp Water Temp Dewpoint Dewpoint Depression Visibility Wind Speed Wind Dir Waves Ship Positions

Stolt Auk

Last reported at 2017-Nov-17 17:39 UTC. Time now 2017-Nov-18 02:59 UTC.
Position N 35°40' E 014°28'.

Length 100 m; draft 6.1 m.

Type: Ship (hazmat cat A). MMSI: 235104739.

Date/timePositionNaut miles runAvg speedWind from/ knotsBaromVisibWave heightAir tempDewpointWater temp
2017-Nov-17 17:39N 35°40' E 014°28'211.7
2017-Nov-17 17:30N 35°40' E 014°26'611.5
2017-Nov-17 17:00N 35°41' E 014°19'611.7
2017-Nov-17 16:29N 35°43' E 014°13'611.4
2017-Nov-17 16:00N 35°46' E 014°07'  
2017-Nov-14 03:18N 36°01' W 005°09'413.9
2017-Nov-14 03:00N 36°00' W 005°14'713.4
2017-Nov-14 02:30N 35°58' W 005°22'  
2017-Nov-11 02:14N 46°56' W 007°24'13511.9
2017-Nov-10 14:54N 48°54' W 005°44'1112.3
2017-Nov-10 14:01N 49°00' W 005°31'8610.5
2017-Nov-10 05:54N 49°43' W 003°37'512.2
2017-Nov-10 05:30N 49°46' W 003°31'612.4
2017-Nov-10 05:00N 49°49' W 003°22'712.8
2017-Nov-10 04:25N 49°53' W 003°12'512.9
2017-Nov-10 04:00N 49°55' W 003°05'612.9
2017-Nov-10 03:30N 49°58' W 002°56'612.9
2017-Nov-10 03:00N 50°00' W 002°47'612.5
2017-Nov-10 02:30N 50°02' W 002°38'4410.6
2017-Nov-09 22:22N 50°13' W 001°32'4213.4
2017-Nov-09 19:15N 50°24' W 000°28'414.9
2017-Nov-09 19:00N 50°25' W 000°23'714.7
2017-Nov-09 18:30N 50°27' W 000°12'714.5
2017-Nov-09 18:00N 50°28' W 000°00'714.3
2017-Nov-09 17:30N 50°30' E 000°10'714.0
2017-Nov-09 17:00N 50°32' E 000°21'713.6
2017-Nov-09 16:30N 50°34' E 000°31'612.9
2017-Nov-09 16:00N 50°37' E 000°40'612.7
2017-Nov-09 15:31N 50°41' E 000°48'612.1
2017-Nov-09 15:00N 50°44' E 000°56'611.7
2017-Nov-09 14:30N 50°48' E 001°03'611.6
2017-Nov-09 13:57N 50°52' E 001°12'511.7
2017-Nov-09 13:30N 50°55' E 001°18'612.2
2017-Nov-09 13:00N 50°60' E 001°24'713.4
2017-Nov-09 12:30N 51°04' E 001°32'714.6
2017-Nov-09 12:00N 51°10' E 001°40'714.9
2017-Nov-09 11:30N 51°15' E 001°47'815.1
2017-Nov-09 11:00N 51°22' E 001°53'714.4
2017-Nov-09 10:30N 51°28' E 001°59'714.0
2017-Nov-09 10:00N 51°33' E 002°07'813.5
2017-Nov-09 09:27N 51°39' E 002°15'1612.7
2017-Nov-09 08:09N 51°51' E 002°33'1412.0
2017-Nov-09 07:02N 52°00' E 002°49'011.8
2017-Nov-09 07:00N 52°00' E 002°50'2811.8
2017-Nov-09 04:36N 52°04' E 003°35'111.5
2017-Nov-09 04:30N 52°04' E 003°37'612.0
2017-Nov-09 04:00N 52°03' E 003°47'511.0
2017-Nov-09 03:30N 52°02' E 003°55'612.6
2017-Nov-09 03:01N 51°59' E 004°04'612.8
2017-Nov-09 02:30N 51°56' E 004°13'510.7
2017-Nov-09 02:00N 51°54' E 004°21'0 0.8
2017-Nov-09 01:29N 51°54' E 004°22'0 0.0
2017-Nov-09 00:59N 51°54' E 004°22'0 0.0
2017-Nov-09 00:29N 51°54' E 004°22'0 0.0
2017-Nov-08 23:59N 51°54' E 004°22'0 0.0
2017-Nov-08 23:29N 51°54' E 004°22'0 0.0
2017-Nov-08 22:59N 51°54' E 004°22'0 0.0
2017-Nov-08 22:29N 51°54' E 004°22'0 0.0
2017-Nov-08 21:59N 51°54' E 004°22'0 0.0
2017-Nov-08 21:26N 51°54' E 004°22'0 0.0
2017-Nov-08 20:59N 51°54' E 004°22'0 0.0
2017-Nov-08 20:29N 51°54' E 004°22'0 0.0
2017-Nov-08 19:59N 51°54' E 004°22'0 0.0
2017-Nov-08 19:29N 51°54' E 004°22'0 0.0
2017-Nov-08 18:59N 51°54' E 004°22'0 0.0
2017-Nov-08 18:29N 51°54' E 004°22'0 0.0
2017-Nov-08 17:59N 51°54' E 004°22'0 0.0
2017-Nov-08 17:26N 51°54' E 004°22'0 0.0
2017-Nov-08 16:59N 51°54' E 004°22'0 0.0
2017-Nov-08 16:29N 51°54' E 004°22'0 0.0
2017-Nov-08 15:59N 51°54' E 004°22'0 0.0
2017-Nov-08 15:29N 51°54' E 004°22'0 0.0
2017-Nov-08 14:59N 51°54' E 004°22'0 0.0
2017-Nov-08 14:29N 51°54' E 004°22'0 0.0
2017-Nov-08 13:59N 51°54' E 004°22'0 0.0
2017-Nov-08 13:26N 51°54' E 004°22'0 0.0
2017-Nov-08 12:59N 51°54' E 004°22'0 0.0
2017-Nov-08 12:23N 51°54' E 004°22'0 0.0
2017-Nov-08 11:59N 51°54' E 004°22'0 0.0
2017-Nov-08 11:29N 51°54' E 004°22'0 0.0
2017-Nov-08 10:56N 51°54' E 004°22'0 0.0
2017-Nov-08 10:29N 51°54' E 004°22'0 0.0
2017-Nov-08 09:59N 51°54' E 004°22'0 0.0
2017-Nov-08 09:29N 51°54' E 004°22'0 0.0
2017-Nov-08 08:56N 51°54' E 004°22'0 0.0
2017-Nov-08 08:29N 51°54' E 004°22'0 0.0
2017-Nov-08 07:56N 51°54' E 004°22'0 0.0
2017-Nov-08 07:29N 51°54' E 004°22'0 0.0
2017-Nov-08 06:59N 51°54' E 004°22'0 0.0
2017-Nov-08 06:29N 51°54' E 004°22'0 0.0
2017-Nov-08 05:59N 51°54' E 004°22'0 0.0
2017-Nov-08 05:29N 51°54' E 004°22'0 0.0
2017-Nov-08 04:59N 51°54' E 004°22'0 0.9
2017-Nov-08 04:30N 51°54' E 004°22'4 8.3
2017-Nov-08 04:00N 51°54' E 004°16'611.2
2017-Nov-08 03:30N 51°58' E 004°09'611.9
2017-Nov-08 03:00N 51°60' E 003°60'612.6
2017-Nov-08 02:30N 51°60' E 003°49'5 9.4
2017-Nov-08 02:00N 51°56' E 003°45'0 0.1
2017-Nov-08 01:30N 51°56' E 003°45'0 0.1
2017-Nov-08 00:57N 51°56' E 003°45'0 0.0
2017-Nov-08 00:30N 51°56' E 003°45'0 0.0
2017-Nov-07 23:54N 51°56' E 003°45'0 0.0
2017-Nov-07 23:30N 51°56' E 003°45'0 0.0
2017-Nov-07 23:00N 51°56' E 003°45'0 0.0
2017-Nov-07 22:30N 51°56' E 003°45'0 0.0
2017-Nov-07 21:54N 51°56' E 003°45'0 0.0
2017-Nov-07 21:27N 51°56' E 003°45'0 0.2
2017-Nov-07 21:00N 51°56' E 003°45'0 0.1
2017-Nov-07 19:27N 51°56' E 003°45'0 0.0
2017-Nov-07 18:09N 51°56' E 003°45'0 0.0
2017-Nov-07 18:00N 51°56' E 003°45'  

Dump ship's entire track history